sensor_id;sensor_type;location;lat;lon;timestamp;pressure;altitude;pressure_sealevel;temperature;humidity
52625;BME280;38519;52.540;13.410;2023-02-21T00:00:22;100436.94;;;7.92;100.00
52625;BME280;38519;52.540;13.410;2023-02-21T00:03:06;100435.72;;;7.98;100.00
52625;BME280;38519;52.540;13.410;2023-02-21T00:05:50;100404.53;;;7.98;100.00
52625;BME280;38519;52.540;13.410;2023-02-21T00:08:34;100421.03;;;7.99;100.00
52625;BME280;38519;52.540;13.410;2023-02-21T00:11:18;100431.06;;;7.94;100.00
52625;BME280;38519;52.540;13.410;2023-02-21T00:14:02;100432.22;;;7.98;100.00
52625;BME280;38519;52.540;13.410;2023-02-21T00:16:46;100422.84;;;8.00;100.00
52625;BME280;38519;52.540;13.410;2023-02-21T00:19:30;100425.31;;;7.98;100.00
52625;BME280;38519;52.540;13.410;2023-02-21T00:22:14;100414.16;;;7.99;100.00
52625;BME280;38519;52.540;13.410;2023-02-21T00:24:58;100421.03;;;7.99;100.00
52625;BME280;38519;52.540;13.410;2023-02-21T00:27:42;100420.00;;;7.97;100.00
52625;BME280;38519;52.540;13.410;2023-02-21T00:30:25;100419.09;;;7.96;100.00
52625;BME280;38519;52.540;13.410;2023-02-21T00:33:09;100412.09;;;7.95;100.00
52625;BME280;38519;52.540;13.410;2023-02-21T00:35:53;100400.97;;;7.86;100.00
52625;BME280;38519;52.540;13.410;2023-02-21T00:38:37;100409.13;;;7.91;100.00
52625;BME280;38519;52.540;13.410;2023-02-21T00:41:21;100404.03;;;7.92;100.00
52625;BME280;38519;52.540;13.410;2023-02-21T00:44:05;100414.81;;;7.97;100.00
52625;BME280;38519;52.540;13.410;2023-02-21T00:46:49;100403.50;;;7.96;100.00
52625;BME280;38519;52.540;13.410;2023-02-21T00:49:33;100398.06;;;7.93;100.00
52625;BME280;38519;52.540;13.410;2023-02-21T00:52:17;100414.03;;;7.98;100.00
52625;BME280;38519;52.540;13.410;2023-02-21T00:55:00;100410.50;;;7.97;100.00
52625;BME280;38519;52.540;13.410;2023-02-21T00:57:44;100399.31;;;7.98;100.00
52625;BME280;38519;52.540;13.410;2023-02-21T01:00:28;100403.75;;;7.99;100.00
52625;BME280;38519;52.540;13.410;2023-02-21T01:03:12;100384.84;;;8.02;100.00
52625;BME280;38519;52.540;13.410;2023-02-21T01:05:56;100391.00;;;8.02;100.00
52625;BME280;38519;52.540;13.410;2023-02-21T01:08:43;100387.69;;;8.05;100.00
52625;BME280;38519;52.540;13.410;2023-02-21T01:11:28;100394.25;;;8.00;100.00
52625;BME280;38519;52.540;13.410;2023-02-21T01:14:12;100387.59;;;8.03;100.00
52625;BME280;38519;52.540;13.410;2023-02-21T01:16:56;100380.78;;;8.06;100.00
52625;BME280;38519;52.540;13.410;2023-02-21T01:19:40;100373.94;;;8.06;100.00
52625;BME280;38519;52.540;13.410;2023-02-21T01:22:25;100374.56;;;8.03;100.00
52625;BME280;38519;52.540;13.410;2023-02-21T01:25:08;100373.44;;;8.00;100.00
52625;BME280;38519;52.540;13.410;2023-02-21T01:27:53;100373.69;;;8.03;100.00
52625;BME280;38519;52.540;13.410;2023-02-21T01:30:38;100371.97;;;8.03;100.00
52625;BME280;38519;52.540;13.410;2023-02-21T01:33:22;100366.25;;;8.08;100.00
52625;BME280;38519;52.540;13.410;2023-02-21T01:36:06;100364.66;;;8.10;100.00
52625;BME280;38519;52.540;13.410;2023-02-21T01:38:50;100361.03;;;8.08;100.00
52625;BME280;38519;52.540;13.410;2023-02-21T01:41:33;100360.34;;;8.10;100.00
52625;BME280;38519;52.540;13.410;2023-02-21T01:44:31;100359.47;;;8.10;100.00
52625;BME280;38519;52.540;13.410;2023-02-21T01:47:16;100364.13;;;8.14;100.00
52625;BME280;38519;52.540;13.410;2023-02-21T01:50:01;100357.63;;;8.09;100.00
52625;BME280;38519;52.540;13.410;2023-02-21T01:52:46;100359.47;;;8.10;100.00
52625;BME280;38519;52.540;13.410;2023-02-21T01:55:31;100362.28;;;8.13;100.00
52625;BME280;38519;52.540;13.410;2023-02-21T01:58:16;100360.81;;;8.16;100.00
52625;BME280;38519;52.540;13.410;2023-02-21T02:01:01;100353.72;;;8.14;100.00
52625;BME280;38519;52.540;13.410;2023-02-21T02:03:45;100346.25;;;8.18;100.00
52625;BME280;38519;52.540;13.410;2023-02-21T02:06:29;100354.03;;;8.18;100.00
52625;BME280;38519;52.540;13.410;2023-02-21T02:09:14;100354.84;;;8.17;100.00
52625;BME280;38519;52.540;13.410;2023-02-21T02:12:07;100364.44;;;8.18;100.00
52625;BME280;38519;52.540;13.410;2023-02-21T02:17:38;100350.78;;;8.21;100.00
52625;BME280;38519;52.540;13.410;2023-02-21T02:27:36;100342.66;;;8.28;100.00
52625;BME280;38519;52.540;13.410;2023-02-21T02:30:12;100334.41;;;8.22;100.00
52625;BME280;38519;52.540;13.410;2023-02-21T02:43:07;100328.66;;;8.38;100.00
52625;BME280;38519;52.540;13.410;2023-02-21T02:45:55;100333.28;;;8.42;100.00
52625;BME280;38519;52.540;13.410;2023-02-21T02:48:25;100346.06;;;8.39;100.00
52625;BME280;38519;52.540;13.410;2023-02-21T02:50:54;100337.59;;;8.42;100.00
52625;BME280;38519;52.540;13.410;2023-02-21T02:53:25;100337.97;;;8.46;100.00
52625;BME280;38519;52.540;13.410;2023-02-21T02:55:52;100330.16;;;8.46;100.00
52625;BME280;38519;52.540;13.410;2023-02-21T02:58:20;100333.66;;;8.47;100.00
52625;BME280;38519;52.540;13.410;2023-02-21T03:01:00;100328.47;;;8.47;100.00
52625;BME280;38519;52.540;13.410;2023-02-21T03:03:38;100332.38;;;8.42;100.00
52625;BME280;38519;52.540;13.410;2023-02-21T03:09:12;100323.59;;;8.51;100.00
52625;BME280;38519;52.540;13.410;2023-02-21T03:11:42;100333.13;;;8.51;100.00
52625;BME280;38519;52.540;13.410;2023-02-21T03:14:16;100326.31;;;8.53;100.00
52625;BME280;38519;52.540;13.410;2023-02-21T03:16:46;100329.94;;;8.55;100.00
52625;BME280;38519;52.540;13.410;2023-02-21T03:19:18;100323.84;;;8.54;100.00
52625;BME280;38519;52.540;13.410;2023-02-21T03:21:51;100317.50;;;8.63;100.00
52625;BME280;38519;52.540;13.410;2023-02-21T03:24:19;100330.63;;;8.64;100.00
52625;BME280;38519;52.540;13.410;2023-02-21T03:26:48;100331.63;;;8.66;100.00
52625;BME280;38519;52.540;13.410;2023-02-21T03:29:16;100336.19;;;8.69;100.00
52625;BME280;38519;52.540;13.410;2023-02-21T03:31:43;100329.84;;;8.65;100.00
52625;BME280;38519;52.540;13.410;2023-02-21T03:34:10;100327.34;;;8.67;100.00
52625;BME280;38519;52.540;13.410;2023-02-21T03:36:37;100326.44;;;8.66;100.00
52625;BME280;38519;52.540;13.410;2023-02-21T03:39:03;100330.97;;;8.69;100.00
52625;BME280;38519;52.540;13.410;2023-02-21T03:41:28;100333.69;;;8.70;100.00
52625;BME280;38519;52.540;13.410;2023-02-21T03:43:54;100328.72;;;8.73;100.00
52625;BME280;38519;52.540;13.410;2023-02-21T03:46:19;100327.91;;;8.74;100.00
52625;BME280;38519;52.540;13.410;2023-02-21T03:48:44;100327.91;;;8.74;100.00
52625;BME280;38519;52.540;13.410;2023-02-21T03:51:12;100330.38;;;8.73;100.00
52625;BME280;38519;52.540;13.410;2023-02-21T03:53:38;100339.34;;;8.77;100.00
52625;BME280;38519;52.540;13.410;2023-02-21T03:56:05;100339.25;;;8.75;100.00
52625;BME280;38519;52.540;13.410;2023-02-21T03:58:31;100341.63;;;8.72;100.00
52625;BME280;38519;52.540;13.410;2023-02-21T04:00:56;100350.09;;;8.69;100.00
52625;BME280;38519;52.540;13.410;2023-02-21T04:03:22;100346.47;;;8.79;100.00
52625;BME280;38519;52.540;13.410;2023-02-21T04:05:47;100348.06;;;8.77;100.00
52625;BME280;38519;52.540;13.410;2023-02-21T04:08:13;100350.44;;;8.74;100.00
52625;BME280;38519;52.540;13.410;2023-02-21T04:10:38;100355.31;;;8.81;100.00
52625;BME280;38519;52.540;13.410;2023-02-21T04:13:05;100370.47;;;8.87;100.00
52625;BME280;38519;52.540;13.410;2023-02-21T04:15:31;100355.06;;;8.90;100.00
52625;BME280;38519;52.540;13.410;2023-02-21T04:17:56;100352.34;;;8.88;100.00
52625;BME280;38519;52.540;13.410;2023-02-21T04:20:22;100355.84;;;8.89;100.00
52625;BME280;38519;52.540;13.410;2023-02-21T04:22:47;100372.75;;;8.94;100.00
52625;BME280;38519;52.540;13.410;2023-02-21T04:25:13;100360.84;;;8.98;100.00
52625;BME280;38519;52.540;13.410;2023-02-21T04:27:39;100366.41;;;9.02;100.00
52625;BME280;38519;52.540;13.410;2023-02-21T04:30:04;100376.13;;;9.05;100.00
52625;BME280;38519;52.540;13.410;2023-02-21T04:32:30;100369.78;;;9.01;100.00
52625;BME280;38519;52.540;13.410;2023-02-21T04:34:56;100369.00;;;9.02;100.00
52625;BME280;38519;52.540;13.410;2023-02-21T04:37:21;100377.16;;;8.95;100.00
52625;BME280;38519;52.540;13.410;2023-02-21T04:39:47;100379.31;;;9.01;100.00
52625;BME280;38519;52.540;13.410;2023-02-21T04:42:12;100375.00;;;9.01;100.00
52625;BME280;38519;52.540;13.410;2023-02-21T04:44:38;100373.28;;;9.02;100.00
52625;BME280;38519;52.540;13.410;2023-02-21T04:47:03;100364.81;;;9.04;100.00
52625;BME280;38519;52.540;13.410;2023-02-21T04:49:28;100369.91;;;9.03;100.00
52625;BME280;38519;52.540;13.410;2023-02-21T04:51:54;100365.81;;;9.06;100.00
52625;BME280;38519;52.540;13.410;2023-02-21T04:54:19;100363.22;;;9.06;100.00
52625;BME280;38519;52.540;13.410;2023-02-21T04:56:45;100367.63;;;9.07;100.00
52625;BME280;38519;52.540;13.410;2023-02-21T04:59:11;100361.88;;;9.00;100.00
52625;BME280;38519;52.540;13.410;2023-02-21T05:01:36;100371.38;;;8.87;100.00
52625;BME280;38519;52.540;13.410;2023-02-21T05:04:02;100366.72;;;8.71;100.00
52625;BME280;38519;52.540;13.410;2023-02-21T05:06:28;100374.22;;;8.67;100.00
52625;BME280;38519;52.540;13.410;2023-02-21T05:08:54;100377.25;;;8.61;100.00
52625;BME280;38519;52.540;13.410;2023-02-21T05:11:20;100366.84;;;8.61;100.00
52625;BME280;38519;52.540;13.410;2023-02-21T05:13:46;100367.06;;;8.64;100.00
52625;BME280;38519;52.540;13.410;2023-02-21T05:16:12;100379.97;;;8.63;100.00
52625;BME280;38519;52.540;13.410;2023-02-21T05:18:40;100365.34;;;8.53;100.00
52625;BME280;38519;52.540;13.410;2023-02-21T05:21:05;100365.59;;;8.56;100.00
52625;BME280;38519;52.540;13.410;2023-02-21T05:23:32;100371.56;;;8.55;100.00
52625;BME280;38519;52.540;13.410;2023-02-21T05:26:11;100362.88;;;8.54;100.00
52625;BME280;38519;52.540;13.410;2023-02-21T05:28:38;100371.34;;;8.52;100.00
52625;BME280;38519;52.540;13.410;2023-02-21T05:31:04;100373.59;;;8.47;100.00
52625;BME280;38519;52.540;13.410;2023-02-21T05:33:30;100366.09;;;8.40;100.00
52625;BME280;38519;52.540;13.410;2023-02-21T05:35:55;100378.56;;;8.44;100.00
52625;BME280;38519;52.540;13.410;2023-02-21T05:38:22;100385.31;;;8.42;100.00
52625;BME280;38519;52.540;13.410;2023-02-21T05:40:48;100382.22;;;8.46;100.00
52625;BME280;38519;52.540;13.410;2023-02-21T05:43:13;100373.22;;;8.43;100.00
52625;BME280;38519;52.540;13.410;2023-02-21T05:45:39;100384.69;;;8.45;100.00
52625;BME280;38519;52.540;13.410;2023-02-21T05:48:04;100398.47;;;8.44;100.00
52625;BME280;38519;52.540;13.410;2023-02-21T05:50:30;100387.41;;;8.46;100.00
52625;BME280;38519;52.540;13.410;2023-02-21T05:52:57;100393.41;;;8.45;100.00
52625;BME280;38519;52.540;13.410;2023-02-21T05:55:23;100402.09;;;8.46;100.00
52625;BME280;38519;52.540;13.410;2023-02-21T05:57:48;100401.75;;;8.41;100.00
52625;BME280;38519;52.540;13.410;2023-02-21T06:00:18;100401.75;;;8.41;100.00
52625;BME280;38519;52.540;13.410;2023-02-21T06:02:44;100412.50;;;8.46;100.00
52625;BME280;38519;52.540;13.410;2023-02-21T06:05:09;100407.31;;;8.46;100.00
52625;BME280;38519;52.540;13.410;2023-02-21T06:07:35;100418.53;;;8.45;100.00
52625;BME280;38519;52.540;13.410;2023-02-21T06:10:01;100413.59;;;8.37;100.00
52625;BME280;38519;52.540;13.410;2023-02-21T06:12:27;100430.38;;;8.41;100.00
52625;BME280;38519;52.540;13.410;2023-02-21T06:14:54;100426.47;;;8.36;100.00
52625;BME280;38519;52.540;13.410;2023-02-21T06:17:20;100434.41;;;8.37;100.00
52625;BME280;38519;52.540;13.410;2023-02-21T06:19:46;100426.72;;;8.39;100.00
52625;BME280;38519;52.540;13.410;2023-02-21T06:22:11;100435.88;;;8.34;100.00
52625;BME280;38519;52.540;13.410;2023-02-21T06:24:50;100434.63;;;8.41;100.00
52625;BME280;38519;52.540;13.410;2023-02-21T06:27:16;100447.03;;;8.33;100.00
52625;BME280;38519;52.540;13.410;2023-02-21T06:29:42;100449.66;;;8.33;100.00
52625;BME280;38519;52.540;13.410;2023-02-21T06:32:07;100446.28;;;8.34;100.00
52625;BME280;38519;52.540;13.410;2023-02-21T06:34:32;100442.53;;;8.30;100.00
52625;BME280;38519;52.540;13.410;2023-02-21T06:36:57;100448.09;;;8.35;100.00
52625;BME280;38519;52.540;13.410;2023-02-21T06:39:23;100456.25;;;8.39;100.00
52625;BME280;38519;52.540;13.410;2023-02-21T06:41:48;100454.19;;;8.35;100.00
52625;BME280;38519;52.540;13.410;2023-02-21T06:44:14;100459.88;;;8.42;100.00
52625;BME280;38519;52.540;13.410;2023-02-21T06:46:41;100455.72;;;8.44;100.00
52625;BME280;38519;52.540;13.410;2023-02-21T06:49:06;100466.13;;;8.44;100.00
52625;BME280;38519;52.540;13.410;2023-02-21T06:51:35;100465.84;;;8.41;100.00
52625;BME280;38519;52.540;13.410;2023-02-21T06:54:00;100472.00;;;8.41;100.00
52625;BME280;38519;52.540;13.410;2023-02-21T06:56:26;100477.19;;;8.41;100.00
52625;BME280;38519;52.540;13.410;2023-02-21T06:58:51;100481.97;;;8.47;100.00
52625;BME280;38519;52.540;13.410;2023-02-21T07:01:17;100485.78;;;8.40;100.00
52625;BME280;38519;52.540;13.410;2023-02-21T07:03:42;100490.44;;;8.44;100.00
52625;BME280;38519;52.540;13.410;2023-02-21T07:06:09;100496.69;;;8.46;100.00
52625;BME280;38519;52.540;13.410;2023-02-21T07:08:34;100504.63;;;8.48;100.00
52625;BME280;38519;52.540;13.410;2023-02-21T07:10:59;100508.66;;;8.44;100.00
52625;BME280;38519;52.540;13.410;2023-02-21T07:13:25;100509.94;;;8.49;100.00
52625;BME280;38519;52.540;13.410;2023-02-21T07:15:50;100508.25;;;8.50;100.00
52625;BME280;38519;52.540;13.410;2023-02-21T07:18:16;100517.88;;;8.51;100.00
52625;BME280;38519;52.540;13.410;2023-02-21T07:20:41;100513.34;;;8.48;100.00
52625;BME280;38519;52.540;13.410;2023-02-21T07:23:06;100524.09;;;8.53;100.00
52625;BME280;38519;52.540;13.410;2023-02-21T07:25:34;100526.94;;;8.56;100.00
52625;BME280;38519;52.540;13.410;2023-02-21T07:28:00;100532.03;;;8.54;100.00
52625;BME280;38519;52.540;13.410;2023-02-21T07:30:26;100548.06;;;8.49;100.00
52625;BME280;38519;52.540;13.410;2023-02-21T07:32:51;100542.31;;;8.53;100.00
52625;BME280;38519;52.540;13.410;2023-02-21T07:35:16;100539.97;;;8.56;100.00
52625;BME280;38519;52.540;13.410;2023-02-21T07:37:42;100551.03;;;8.53;100.00
52625;BME280;38519;52.540;13.410;2023-02-21T07:40:08;100538.94;;;8.54;100.00
52625;BME280;38519;52.540;13.410;2023-02-21T07:42:35;100533.13;;;8.46;100.00
52625;BME280;38519;52.540;13.410;2023-02-21T07:45:00;100535.78;;;8.58;100.00
52625;BME280;38519;52.540;13.410;2023-02-21T07:47:25;100546.38;;;8.49;100.00
52625;BME280;38519;52.540;13.410;2023-02-21T07:49:51;100546.97;;;8.57;100.00
52625;BME280;38519;52.540;13.410;2023-02-21T07:52:19;100541.69;;;8.67;100.00
52625;BME280;38519;52.540;13.410;2023-02-21T07:54:45;100542.22;;;8.63;100.00
52625;BME280;38519;52.540;13.410;2023-02-21T07:57:10;100548.41;;;8.75;100.00
52625;BME280;38519;52.540;13.410;2023-02-21T07:59:36;100554.38;;;8.74;100.00
52625;BME280;38519;52.540;13.410;2023-02-21T08:02:01;100547.91;;;8.69;100.00
52625;BME280;38519;52.540;13.410;2023-02-21T08:04:27;100551.53;;;8.71;100.00
52625;BME280;38519;52.540;13.410;2023-02-21T08:06:57;100560.16;;;8.70;100.00
52625;BME280;38519;52.540;13.410;2023-02-21T08:09:22;100568.88;;;8.71;100.00
52625;BME280;38519;52.540;13.410;2023-02-21T08:11:48;100575.78;;;8.70;100.00
52625;BME280;38519;52.540;13.410;2023-02-21T08:14:13;100577.91;;;8.64;100.00
52625;BME280;38519;52.540;13.410;2023-02-21T08:16:38;100583.88;;;8.85;100.00
52625;BME280;38519;52.540;13.410;2023-02-21T08:19:03;100581.75;;;8.91;100.00
52625;BME280;38519;52.540;13.410;2023-02-21T08:21:29;100583.00;;;8.97;100.00
52625;BME280;38519;52.540;13.410;2023-02-21T08:23:54;100586.97;;;9.03;100.00
52625;BME280;38519;52.540;13.410;2023-02-21T08:26:20;100594.19;;;8.96;100.00
52625;BME280;38519;52.540;13.410;2023-02-21T08:28:45;100586.28;;;8.94;100.00
52625;BME280;38519;52.540;13.410;2023-02-21T08:31:11;100592.50;;;8.96;100.00
52625;BME280;38519;52.540;13.410;2023-02-21T08:33:36;100597.03;;;8.99;100.00
52625;BME280;38519;52.540;13.410;2023-02-21T08:36:02;100608.63;;;9.02;100.00
52625;BME280;38519;52.540;13.410;2023-02-21T08:38:27;100599.09;;;9.03;100.00
52625;BME280;38519;52.540;13.410;2023-02-21T08:40:52;100599.94;;;9.14;100.00
52625;BME280;38519;52.540;13.410;2023-02-21T08:43:18;100604.09;;;9.11;100.00
52625;BME280;38519;52.540;13.410;2023-02-21T08:45:43;100612.16;;;9.15;100.00
52625;BME280;38519;52.540;13.410;2023-02-21T08:48:08;100609.78;;;9.18;100.00
52625;BME280;38519;52.540;13.410;2023-02-21T08:50:33;100616.16;;;9.21;100.00
52625;BME280;38519;52.540;13.410;2023-02-21T08:52:59;100618.06;;;9.24;100.00
52625;BME280;38519;52.540;13.410;2023-02-21T08:55:24;100609.91;;;9.19;100.00
52625;BME280;38519;52.540;13.410;2023-02-21T08:57:50;100609.81;;;9.29;100.00
52625;BME280;38519;52.540;13.410;2023-02-21T09:00:20;100619.00;;;9.36;100.00
52625;BME280;38519;52.540;13.410;2023-02-21T09:02:49;100614.28;;;9.42;100.00
52625;BME280;38519;52.540;13.410;2023-02-21T09:05:16;100622.41;;;9.35;100.00
52625;BME280;38519;52.540;13.410;2023-02-21T09:07:46;100622.50;;;9.37;100.00
52625;BME280;38519;52.540;13.410;2023-02-21T09:10:13;100624.88;;;9.34;100.00
52625;BME280;38519;52.540;13.410;2023-02-21T09:12:38;100616.94;;;9.32;100.00
52625;BME280;38519;52.540;13.410;2023-02-21T09:15:05;100622.16;;;9.20;100.00
52625;BME280;38519;52.540;13.410;2023-02-21T09:17:30;100624.41;;;9.27;100.00
52625;BME280;38519;52.540;13.410;2023-02-21T09:19:58;100624.53;;;9.29;100.00
52625;BME280;38519;52.540;13.410;2023-02-21T09:22:24;100627.38;;;9.32;100.00
52625;BME280;38519;52.540;13.410;2023-02-21T09:24:49;100637.09;;;9.23;100.00
52625;BME280;38519;52.540;13.410;2023-02-21T09:27:14;100642.88;;;9.30;100.00
52625;BME280;38519;52.540;13.410;2023-02-21T09:29:41;100639.28;;;9.40;100.00
52625;BME280;38519;52.540;13.410;2023-02-21T09:32:07;100653.91;;;9.38;100.00
52625;BME280;38519;52.540;13.410;2023-02-21T09:34:32;100644.97;;;9.46;100.00
52625;BME280;38519;52.540;13.410;2023-02-21T09:36:57;100652.31;;;9.40;100.00
52625;BME280;38519;52.540;13.410;2023-02-21T09:39:23;100646.31;;;9.41;100.00
52625;BME280;38519;52.540;13.410;2023-02-21T09:41:49;100671.38;;;9.51;100.00
52625;BME280;38519;52.540;13.410;2023-02-21T09:44:18;100660.94;;;9.39;100.00
52625;BME280;38519;52.540;13.410;2023-02-21T09:46:58;100661.06;;;9.53;100.00
52625;BME280;38519;52.540;13.410;2023-02-21T09:49:28;100664.94;;;9.58;100.00
52625;BME280;38519;52.540;13.410;2023-02-21T09:51:54;100657.13;;;9.58;100.00
52625;BME280;38519;52.540;13.410;2023-02-21T09:54:25;100664.59;;;9.53;100.00
52625;BME280;38519;52.540;13.410;2023-02-21T09:56:53;100662.03;;;9.65;100.00
52625;BME280;38519;52.540;13.410;2023-02-21T09:59:18;100667.69;;;9.71;100.00
52625;BME280;38519;52.540;13.410;2023-02-21T10:01:55;100673.13;;;9.74;100.00
52625;BME280;38519;52.540;13.410;2023-02-21T10:07:08;100668.13;;;9.65;100.00
52625;BME280;38519;52.540;13.410;2023-02-21T10:12:27;100664.16;;;9.71;100.00
52625;BME280;38519;52.540;13.410;2023-02-21T10:17:35;100678.91;;;9.70;100.00
52625;BME280;38519;52.540;13.410;2023-02-21T10:20:08;100671.09;;;9.70;100.00
52625;BME280;38519;52.540;13.410;2023-02-21T10:22:37;100679.94;;;9.72;100.00
52625;BME280;38519;52.540;13.410;2023-02-21T10:25:23;100686.97;;;9.73;100.00
52625;BME280;38519;52.540;13.410;2023-02-21T10:27:49;100682.06;;;9.66;100.00
52625;BME280;38519;52.540;13.410;2023-02-21T10:30:33;100704.75;;;9.67;100.00
52625;BME280;38519;52.540;13.410;2023-02-21T10:33:02;100704.19;;;9.71;100.00
52625;BME280;38519;52.540;13.410;2023-02-21T10:35:34;100704.88;;;9.80;100.00
52625;BME280;38519;52.540;13.410;2023-02-21T10:38:00;100692.78;;;9.93;100.00
52625;BME280;38519;52.540;13.410;2023-02-21T10:48:08;100692.88;;;10.06;100.00
52625;BME280;38519;52.540;13.410;2023-02-21T10:53:02;100694.59;;;9.94;100.00
52625;BME280;38519;52.540;13.410;2023-02-21T10:55:27;100691.75;;;10.02;100.00
52625;BME280;38519;52.540;13.410;2023-02-21T10:57:53;100708.78;;;9.97;100.00
52625;BME280;38519;52.540;13.410;2023-02-21T11:00:22;100703.09;;;10.03;100.00
52625;BME280;38519;52.540;13.410;2023-02-21T11:02:48;100704.00;;;10.03;100.00
52625;BME280;38519;52.540;13.410;2023-02-21T11:05:18;100702.53;;;10.31;100.00
52625;BME280;38519;52.540;13.410;2023-02-21T11:07:58;100702.09;;;10.25;100.00
52625;BME280;38519;52.540;13.410;2023-02-21T11:10:27;100703.78;;;10.12;100.00
52625;BME280;38519;52.540;13.410;2023-02-21T11:15:28;100690.75;;;10.00;100.00
52625;BME280;38519;52.540;13.410;2023-02-21T11:18:10;100715.03;;;10.11;100.00
52625;BME280;38519;52.540;13.410;2023-02-21T11:20:36;100704.44;;;9.98;100.00
52625;BME280;38519;52.540;13.410;2023-02-21T11:23:02;100683.81;;;10.01;100.00
52625;BME280;38519;52.540;13.410;2023-02-21T11:25:31;100698.22;;;10.08;100.00
52625;BME280;38519;52.540;13.410;2023-02-21T11:30:25;100709.22;;;10.27;100.00
52625;BME280;38519;52.540;13.410;2023-02-21T11:32:51;100693.38;;;10.36;100.00
52625;BME280;38519;52.540;13.410;2023-02-21T11:40:26;100691.44;;;10.33;100.00
52625;BME280;38519;52.540;13.410;2023-02-21T11:45:45;100695.75;;;10.21;100.00
52625;BME280;38519;52.540;13.410;2023-02-21T11:48:15;100688.59;;;10.18;100.00
52625;BME280;38519;52.540;13.410;2023-02-21T11:50:43;100691.84;;;10.16;100.00
52625;BME280;38519;52.540;13.410;2023-02-21T11:53:16;100701.28;;;10.14;100.00
52625;BME280;38519;52.540;13.410;2023-02-21T11:55:46;100698.91;;;10.05;100.00
52625;BME280;38519;52.540;13.410;2023-02-21T11:58:25;100702.19;;;10.14;100.00
52625;BME280;38519;52.540;13.410;2023-02-21T12:01:00;100700.59;;;10.05;100.00
52625;BME280;38519;52.540;13.410;2023-02-21T12:03:32;100707.63;;;10.17;100.00
52625;BME280;38519;52.540;13.410;2023-02-21T12:13:48;100709.94;;;10.36;100.00
52625;BME280;38519;52.540;13.410;2023-02-21T12:19:05;100708.19;;;10.25;100.00
52625;BME280;38519;52.540;13.410;2023-02-21T12:21:41;100715.75;;;10.32;100.00
52625;BME280;38519;52.540;13.410;2023-02-21T12:26:52;100713.78;;;10.18;100.00
52625;BME280;38519;52.540;13.410;2023-02-21T12:36:57;100709.69;;;10.21;100.00
52625;BME280;38519;52.540;13.410;2023-02-21T12:42:04;100706.66;;;10.39;100.00
52625;BME280;38519;52.540;13.410;2023-02-21T12:52:53;100709.81;;;10.35;100.00
52625;BME280;38519;52.540;13.410;2023-02-21T12:55:13;100705.81;;;10.28;100.00
52625;BME280;38519;52.540;13.410;2023-02-21T13:08:27;100694.59;;;10.06;100.00
52625;BME280;38519;52.540;13.410;2023-02-21T13:13:27;100705.25;;;10.09;100.00
52625;BME280;38519;52.540;13.410;2023-02-21T13:15:53;100691.75;;;10.14;100.00
52625;BME280;38519;52.540;13.410;2023-02-21T13:18:23;100713.31;;;10.12;100.00
52625;BME280;38519;52.540;13.410;2023-02-21T13:20:54;100698.91;;;10.17;100.00
52625;BME280;38519;52.540;13.410;2023-02-21T13:28:41;100704.13;;;10.05;100.00
52625;BME280;38519;52.540;13.410;2023-02-21T13:31:16;100702.06;;;10.01;100.00
52625;BME280;38519;52.540;13.410;2023-02-21T13:33:43;100690.03;;;10.03;100.00
52625;BME280;38519;52.540;13.410;2023-02-21T13:36:27;100697.75;;;10.01;100.00
52625;BME280;38519;52.540;13.410;2023-02-21T13:41:26;100690.28;;;10.06;100.00
52625;BME280;38519;52.540;13.410;2023-02-21T13:43:52;100688.94;;;10.11;100.00
52625;BME280;38519;52.540;13.410;2023-02-21T13:51:53;100690.16;;;10.05;100.00
52625;BME280;38519;52.540;13.410;2023-02-21T13:54:37;100697.31;;;10.19;100.00
52625;BME280;38519;52.540;13.410;2023-02-21T13:57:29;100688.69;;;10.20;100.00
52625;BME280;38519;52.540;13.410;2023-02-21T13:59:55;100698.56;;;10.12;100.00
52625;BME280;38519;52.540;13.410;2023-02-21T14:02:27;100692.56;;;10.13;100.00
52625;BME280;38519;52.540;13.410;2023-02-21T14:04:59;100688.72;;;10.08;100.00
52625;BME280;38519;52.540;13.410;2023-02-21T14:07:44;100701.19;;;10.00;100.00
52625;BME280;38519;52.540;13.410;2023-02-21T14:10:19;100694.25;;;10.01;100.00
52625;BME280;38519;52.540;13.410;2023-02-21T14:12:51;100704.69;;;10.01;100.00
52625;BME280;38519;52.540;13.410;2023-02-21T14:15:18;100694.47;;;9.92;100.00
52625;BME280;38519;52.540;13.410;2023-02-21T14:17:43;100701.59;;;9.83;100.00
52625;BME280;38519;52.540;13.410;2023-02-21T14:20:14;100686.84;;;9.83;100.00
52625;BME280;38519;52.540;13.410;2023-02-21T14:22:40;100699.31;;;9.76;100.00
52625;BME280;38519;52.540;13.410;2023-02-21T14:25:21;100692.31;;;9.75;100.00
52625;BME280;38519;52.540;13.410;2023-02-21T14:27:48;100698.28;;;9.74;100.00
52625;BME280;38519;52.540;13.410;2023-02-21T14:30:22;100693.97;;;9.74;100.00
52625;BME280;38519;52.540;13.410;2023-02-21T14:32:49;100705.88;;;9.71;100.00
52625;BME280;38519;52.540;13.410;2023-02-21T14:37:41;100706.47;;;9.66;100.00
52625;BME280;38519;52.540;13.410;2023-02-21T14:42:51;100702.69;;;9.63;100.00
52625;BME280;38519;52.540;13.410;2023-02-21T14:51:18;100716.06;;;9.56;100.00
52625;BME280;38519;52.540;13.410;2023-02-21T14:56:28;100715.09;;;9.43;100.00
52625;BME280;38519;52.540;13.410;2023-02-21T15:01:41;100711.38;;;9.52;100.00
52625;BME280;38519;52.540;13.410;2023-02-21T15:06:45;100711.75;;;9.56;100.00